createdAt,value
2023-05-19T00:00:19.477Z,0.00
2023-05-19T00:01:19.454Z,0.00
2023-05-19T00:02:19.515Z,0.00
2023-05-19T00:03:19.535Z,0.00
2023-05-19T00:04:19.432Z,0.00
2023-05-19T00:05:19.422Z,0.00
2023-05-19T00:06:19.439Z,0.00
2023-05-19T00:07:19.414Z,0.00
2023-05-19T00:08:19.375Z,0.00
2023-05-19T00:09:19.356Z,0.00
2023-05-19T00:10:19.353Z,0.00
2023-05-19T00:11:19.359Z,0.00
2023-05-19T00:12:19.372Z,0.00
2023-05-19T00:13:19.331Z,0.00
2023-05-19T00:14:19.318Z,0.00
2023-05-19T00:15:19.333Z,0.00
2023-05-19T00:16:19.336Z,0.00
2023-05-19T00:17:19.285Z,0.00
2023-05-19T00:18:19.269Z,0.00
2023-05-19T00:19:19.273Z,0.00
2023-05-19T00:20:19.259Z,0.00
2023-05-19T00:21:19.245Z,0.00
2023-05-19T00:22:19.310Z,0.00
2023-05-19T00:23:19.209Z,0.00
2023-05-19T00:24:19.202Z,0.00
2023-05-19T00:25:19.210Z,0.00
2023-05-19T00:26:19.173Z,0.00
2023-05-19T00:27:19.192Z,0.00
2023-05-19T00:28:19.153Z,0.00
2023-05-19T00:29:19.182Z,0.00
2023-05-19T00:30:19.152Z,0.00
2023-05-19T00:31:19.190Z,0.00
2023-05-19T00:32:19.127Z,0.00
2023-05-19T00:33:19.103Z,0.00
2023-05-19T00:34:19.093Z,0.00
2023-05-19T00:35:19.093Z,0.00
2023-05-19T00:36:19.085Z,0.00
2023-05-19T00:37:19.064Z,0.00
2023-05-19T00:38:19.057Z,0.00
2023-05-19T00:39:19.057Z,0.00
2023-05-19T00:40:19.047Z,0.00
2023-05-19T00:41:19.025Z,0.00
2023-05-19T00:42:19.011Z,0.00
2023-05-19T00:43:19.026Z,0.00
2023-05-19T00:44:19.015Z,0.00
2023-05-19T00:45:18.962Z,0.00
2023-05-19T00:46:18.985Z,0.00
2023-05-19T00:47:18.940Z,0.00
2023-05-19T00:48:18.930Z,0.00
2023-05-19T00:49:18.935Z,0.00
2023-05-19T00:50:18.916Z,0.00
2023-05-19T00:51:18.906Z,0.00
2023-05-19T00:52:18.896Z,0.00
2023-05-19T00:53:18.913Z,0.00
2023-05-19T00:54:18.858Z,0.00
2023-05-19T00:55:18.855Z,0.00
2023-05-19T00:56:18.855Z,0.00
2023-05-19T00:57:18.834Z,0.00
2023-05-19T00:58:18.848Z,0.00
2023-05-19T00:59:18.810Z,0.00
2023-05-19T01:00:18.813Z,0.00
2023-05-19T01:01:18.895Z,0.00
2023-05-19T01:02:18.805Z,0.00
2023-05-19T01:03:18.878Z,0.00
2023-05-19T01:04:18.753Z,0.00
2023-05-19T01:05:18.750Z,0.00
2023-05-19T01:06:18.743Z,0.00
2023-05-19T01:07:18.742Z,0.00
2023-05-19T01:08:18.722Z,0.00
2023-05-19T01:09:18.702Z,0.00
2023-05-19T01:10:18.709Z,0.00
2023-05-19T01:11:18.679Z,0.00
2023-05-19T01:12:18.688Z,0.00
2023-05-19T01:13:18.663Z,0.00
2023-05-19T01:14:18.671Z,0.00
2023-05-19T01:15:18.645Z,0.00
2023-05-19T01:16:18.715Z,0.00
2023-05-19T01:17:18.632Z,0.00
2023-05-19T01:18:18.642Z,0.00
2023-05-19T01:19:18.710Z,0.00
2023-05-19T01:20:18.606Z,0.00
2023-05-19T01:21:18.580Z,0.00
2023-05-19T01:22:18.587Z,0.00
2023-05-19T01:23:18.587Z,0.00
2023-05-19T01:24:18.546Z,0.00
2023-05-19T01:25:18.541Z,0.00
2023-05-19T01:26:18.546Z,0.00
2023-05-19T01:27:18.520Z,0.00
2023-05-19T01:28:18.508Z,0.00
2023-05-19T01:29:18.495Z,0.00
2023-05-19T01:30:18.489Z,0.00
2023-05-19T01:31:18.518Z,0.00
2023-05-19T01:32:18.467Z,0.00
2023-05-19T01:33:18.442Z,0.00
2023-05-19T01:34:18.441Z,0.00
2023-05-19T01:35:18.477Z,0.00
2023-05-19T01:36:18.430Z,0.00
2023-05-19T01:37:18.416Z,0.00
2023-05-19T01:38:18.402Z,0.00
2023-05-19T01:39:18.385Z,0.00
2023-05-19T01:40:18.387Z,0.00
2023-05-19T01:41:18.369Z,0.00
2023-05-19T01:42:18.357Z,0.00
2023-05-19T01:43:18.335Z,0.00
2023-05-19T01:44:18.348Z,0.00
2023-05-19T01:45:18.325Z,0.00
2023-05-19T01:46:18.366Z,0.00
2023-05-19T01:47:18.304Z,0.00
2023-05-19T01:48:18.315Z,0.00
2023-05-19T01:49:18.294Z,0.00
2023-05-19T01:50:18.279Z,0.00
2023-05-19T01:51:18.265Z,0.00
2023-05-19T01:52:18.259Z,0.00
2023-05-19T01:53:18.268Z,0.00
2023-05-19T01:54:18.242Z,0.00
2023-05-19T01:55:18.236Z,0.00
2023-05-19T01:56:18.206Z,0.00
2023-05-19T01:57:18.197Z,0.00
2023-05-19T01:58:18.186Z,0.00
2023-05-19T01:59:18.187Z,0.00
2023-05-19T02:00:19.311Z,0.00
2023-05-19T02:01:18.188Z,0.00
2023-05-19T02:02:18.150Z,0.00
2023-05-19T02:03:18.145Z,0.00
2023-05-19T02:04:18.196Z,0.00
2023-05-19T02:05:18.110Z,0.00
2023-05-19T02:06:18.101Z,0.00
2023-05-19T02:07:18.081Z,0.00
2023-05-19T02:08:18.103Z,0.00
2023-05-19T02:09:18.069Z,0.00
2023-05-19T02:10:18.058Z,0.00
2023-05-19T02:11:18.058Z,0.00
2023-05-19T02:12:18.044Z,0.00
2023-05-19T02:13:18.042Z,0.00
2023-05-19T02:14:18.018Z,0.00
2023-05-19T02:15:18.043Z,0.00
2023-05-19T02:16:18.075Z,0.00
2023-05-19T02:17:17.990Z,0.00
2023-05-19T02:18:17.988Z,0.00
2023-05-19T02:19:18.010Z,0.00
2023-05-19T02:20:17.946Z,0.00
2023-05-19T02:21:17.944Z,0.00
2023-05-19T02:22:17.947Z,0.00
2023-05-19T02:23:17.913Z,0.00
2023-05-19T02:24:17.912Z,0.00
2023-05-19T02:25:17.908Z,0.00
2023-05-19T02:26:17.906Z,0.00
2023-05-19T02:27:17.866Z,0.00
2023-05-19T02:28:17.880Z,0.00
2023-05-19T02:29:17.844Z,0.00
2023-05-19T02:30:17.840Z,0.00
2023-05-19T02:31:17.854Z,0.00
2023-05-19T02:32:17.890Z,0.00
2023-05-19T02:33:17.799Z,0.00
2023-05-19T02:34:17.794Z,0.00
2023-05-19T02:35:17.789Z,0.00
2023-05-19T02:36:17.780Z,0.00
2023-05-19T02:37:17.781Z,0.00
2023-05-19T02:38:17.757Z,0.00
2023-05-19T02:39:17.740Z,0.00
2023-05-19T02:40:17.769Z,0.00
2023-05-19T02:41:17.729Z,0.00
2023-05-19T02:42:17.718Z,0.00
2023-05-19T02:43:17.704Z,0.00
2023-05-19T02:44:17.698Z,0.00
2023-05-19T02:45:17.683Z,0.00
2023-05-19T02:46:17.713Z,0.00
2023-05-19T02:47:17.663Z,0.00
2023-05-19T02:48:17.643Z,0.00
2023-05-19T02:49:17.634Z,0.00
2023-05-19T02:50:17.650Z,0.00
2023-05-19T02:51:17.606Z,0.00
2023-05-19T02:52:17.618Z,0.00
2023-05-19T02:53:17.594Z,0.00
2023-05-19T02:54:17.594Z,0.00
2023-05-19T02:55:17.568Z,0.00
2023-05-19T02:56:17.575Z,0.00
2023-05-19T02:57:17.540Z,0.00
2023-05-19T02:58:17.543Z,0.00
2023-05-19T02:59:17.536Z,0.00
2023-05-19T03:00:17.512Z,0.00
2023-05-19T03:01:17.536Z,4.00
2023-05-19T03:02:17.505Z,4.00
2023-05-19T03:03:17.804Z,4.00
2023-05-19T03:04:17.481Z,0.00
2023-05-19T03:05:17.460Z,4.00
2023-05-19T03:06:17.447Z,4.00
2023-05-19T03:07:17.442Z,8.00
2023-05-19T03:08:17.438Z,4.00
2023-05-19T03:09:17.415Z,8.00
2023-05-19T03:10:17.412Z,8.00
2023-05-19T03:11:17.396Z,12.00
2023-05-19T03:12:17.384Z,12.00
2023-05-19T03:13:17.385Z,12.00
2023-05-19T03:14:17.368Z,12.00
2023-05-19T03:15:17.368Z,16.00
2023-05-19T03:16:17.396Z,20.00
2023-05-19T03:17:17.375Z,20.00
2023-05-19T03:18:17.372Z,28.00
2023-05-19T03:19:17.460Z,32.00
2023-05-19T03:20:17.306Z,36.00
2023-05-19T03:21:17.285Z,40.00
2023-05-19T03:22:17.298Z,44.00
2023-05-19T03:23:17.265Z,48.00
2023-05-19T03:24:17.260Z,56.00
2023-05-19T03:25:17.246Z,64.00
2023-05-19T03:26:17.258Z,72.00
2023-05-19T03:27:17.232Z,84.00
2023-05-19T03:28:17.249Z,92.00
2023-05-19T03:29:17.229Z,104.00
2023-05-19T03:30:17.202Z,112.00
2023-05-19T03:31:17.193Z,124.00
2023-05-19T03:32:17.215Z,140.00
2023-05-19T03:33:17.318Z,152.00
2023-05-19T03:34:17.169Z,164.00
2023-05-19T03:35:17.141Z,184.00
2023-05-19T03:36:17.141Z,196.00
2023-05-19T03:37:17.125Z,212.00
2023-05-19T03:38:17.120Z,232.00
2023-05-19T03:39:17.092Z,252.00
2023-05-19T03:40:17.098Z,272.00
2023-05-19T03:41:17.091Z,292.00
2023-05-19T03:42:17.082Z,316.00
2023-05-19T03:43:17.051Z,340.00
2023-05-19T03:44:17.072Z,368.00
2023-05-19T03:45:17.293Z,392.00
2023-05-19T03:46:17.078Z,420.00
2023-05-19T03:47:17.023Z,448.00
2023-05-19T03:48:19.047Z,480.00
2023-05-19T03:49:17.000Z,512.00
2023-05-19T03:50:17.044Z,548.00
2023-05-19T03:51:16.970Z,584.00
2023-05-19T03:52:16.973Z,616.00
2023-05-19T03:53:16.949Z,656.00
2023-05-19T03:54:16.948Z,692.00
2023-05-19T03:55:16.942Z,732.00
2023-05-19T03:56:16.933Z,776.00
2023-05-19T03:57:16.912Z,816.00
2023-05-19T03:58:16.904Z,860.00
2023-05-19T03:59:16.896Z,904.00
2023-05-19T04:00:16.889Z,952.00
2023-05-19T04:01:16.865Z,996.00
2023-05-19T04:02:17.068Z,1044.00
2023-05-19T04:03:16.982Z,1096.00
2023-05-19T04:04:16.913Z,1152.00
2023-05-19T04:05:16.820Z,1200.00
2023-05-19T04:06:16.808Z,1248.00
2023-05-19T04:07:16.801Z,1300.00
2023-05-19T04:08:16.792Z,1364.00
2023-05-19T04:09:16.788Z,1428.00
2023-05-19T04:10:16.776Z,1488.00
2023-05-19T04:11:16.784Z,1536.00
2023-05-19T04:12:16.767Z,1592.00
2023-05-19T04:13:16.751Z,1640.00
2023-05-19T04:14:16.757Z,1720.00
2023-05-19T04:15:16.712Z,1772.00
2023-05-19T04:16:16.789Z,1784.00
2023-05-19T04:17:16.689Z,1836.00
2023-05-19T04:18:16.749Z,1884.00
2023-05-19T04:19:16.743Z,1936.00
2023-05-19T04:20:16.661Z,1988.00
2023-05-19T04:21:16.654Z,2044.00
2023-05-19T04:22:16.644Z,2112.00
2023-05-19T04:23:16.633Z,2188.00
2023-05-19T04:24:16.618Z,2264.00
2023-05-19T04:25:16.607Z,2324.00
2023-05-19T04:26:16.653Z,2344.00
2023-05-19T04:27:16.589Z,2360.00
2023-05-19T04:28:16.603Z,2392.00
2023-05-19T04:29:16.564Z,2448.00
2023-05-19T04:30:18.448Z,2500.00
2023-05-19T04:31:16.556Z,2532.00
2023-05-19T04:32:16.540Z,2596.00
2023-05-19T04:33:16.515Z,2708.00
2023-05-19T04:34:16.513Z,2760.00
2023-05-19T04:35:16.503Z,2804.00
2023-05-19T04:36:16.490Z,2876.00
2023-05-19T04:37:16.499Z,2888.00
2023-05-19T04:38:16.468Z,2904.00
2023-05-19T04:39:16.460Z,2932.00
2023-05-19T04:40:16.463Z,3000.00
2023-05-19T04:41:16.508Z,3160.00
2023-05-19T04:42:16.466Z,3300.00
2023-05-19T04:43:16.411Z,3236.00
2023-05-19T04:44:16.406Z,3256.00
2023-05-19T04:45:16.388Z,3312.00
2023-05-19T04:46:16.433Z,3316.00
2023-05-19T04:47:16.371Z,3344.00
2023-05-19T04:48:16.364Z,3356.00
2023-05-19T04:49:16.345Z,3400.00
2023-05-19T04:50:16.409Z,3456.00
2023-05-19T04:51:16.335Z,3548.00
2023-05-19T04:52:16.332Z,3728.00
2023-05-19T04:53:16.374Z,3764.00
2023-05-19T04:54:16.295Z,3696.00
2023-05-19T04:55:16.298Z,3692.00
2023-05-19T04:56:16.291Z,3712.00
2023-05-19T04:57:16.269Z,3760.00
2023-05-19T04:58:16.285Z,3800.00
2023-05-19T04:59:16.237Z,3844.00
2023-05-19T05:00:16.249Z,3892.00
2023-05-19T05:01:16.363Z,3936.00
2023-05-19T05:02:16.349Z,3988.00
2023-05-19T05:03:16.325Z,4048.00
2023-05-19T05:04:16.209Z,4068.00
2023-05-19T05:05:16.181Z,4112.00
2023-05-19T05:06:16.157Z,4160.00
2023-05-19T05:07:16.162Z,4212.00
2023-05-19T05:08:16.205Z,4260.00
2023-05-19T05:09:16.155Z,4308.00
2023-05-19T05:10:16.129Z,4360.00
2023-05-19T05:11:16.112Z,4400.00
2023-05-19T05:12:16.099Z,4448.00
2023-05-19T05:13:16.088Z,4496.00
2023-05-19T05:14:16.088Z,4540.00
2023-05-19T05:15:16.071Z,4588.00
2023-05-19T05:16:16.083Z,4640.00
2023-05-19T05:17:16.049Z,4700.00
2023-05-19T05:18:16.061Z,4748.00
2023-05-19T05:19:16.109Z,4784.00
2023-05-19T05:20:16.116Z,4840.00
2023-05-19T05:21:15.990Z,4892.00
2023-05-19T05:22:16.120Z,4956.00
2023-05-19T05:23:15.982Z,5100.00
2023-05-19T05:24:15.974Z,5108.00
2023-05-19T05:25:16.053Z,5116.00
2023-05-19T05:26:15.946Z,5140.00
2023-05-19T05:27:15.949Z,5196.00
2023-05-19T05:28:15.953Z,5224.00
2023-05-19T05:29:15.932Z,5264.00
2023-05-19T05:30:15.913Z,5532.00
2023-05-19T05:31:15.888Z,5836.00
2023-05-19T05:32:15.934Z,5900.00
2023-05-19T05:33:16.086Z,6332.00
2023-05-19T05:34:15.860Z,6476.00
2023-05-19T05:35:15.849Z,6836.00
2023-05-19T05:36:15.852Z,9240.00
2023-05-19T05:37:15.853Z,10820.00
2023-05-19T05:38:16.898Z,8772.00
2023-05-19T05:39:15.806Z,7404.00
2023-05-19T05:40:15.806Z,8072.00
2023-05-19T05:41:15.871Z,10292.00
2023-05-19T05:42:15.843Z,12988.00
2023-05-19T05:43:15.776Z,13592.00
2023-05-19T05:44:15.761Z,14140.00
2023-05-19T05:45:15.730Z,14928.00
2023-05-19T05:46:15.819Z,16032.00
2023-05-19T05:47:15.732Z,16448.00
2023-05-19T05:48:16.036Z,17440.00
2023-05-19T05:49:15.702Z,18048.00
2023-05-19T05:50:15.691Z,18112.00
2023-05-19T05:51:15.694Z,18240.00
2023-05-19T05:52:15.679Z,19168.00
2023-05-19T05:53:15.660Z,20832.00
2023-05-19T05:54:15.673Z,22464.00
2023-05-19T05:55:15.641Z,23456.00
2023-05-19T05:56:15.674Z,23968.00
2023-05-19T05:57:15.668Z,22368.00
2023-05-19T05:58:15.598Z,20576.00
2023-05-19T05:59:15.662Z,20608.00
2023-05-19T06:00:15.771Z,20608.00
2023-05-19T06:01:15.594Z,20896.00
2023-05-19T06:02:15.591Z,21408.00
2023-05-19T06:03:15.699Z,21504.00
2023-05-19T06:04:15.617Z,21184.00
2023-05-19T06:05:15.700Z,21504.00
2023-05-19T06:06:15.579Z,21792.00
2023-05-19T06:07:15.546Z,22240.00
2023-05-19T06:08:15.518Z,22720.00
2023-05-19T06:09:15.480Z,23008.00
2023-05-19T06:10:15.666Z,23328.00
2023-05-19T06:11:15.508Z,23648.00
2023-05-19T06:12:15.574Z,24032.00
2023-05-19T06:13:15.508Z,24288.00
2023-05-19T06:14:15.602Z,24640.00
2023-05-19T06:15:15.618Z,25184.00
2023-05-19T06:16:15.505Z,25504.00
2023-05-19T06:17:15.411Z,25728.00
2023-05-19T06:18:15.503Z,26080.00
2023-05-19T06:19:15.667Z,26528.00
2023-05-19T06:20:15.457Z,27264.00
2023-05-19T06:21:15.372Z,28032.00
2023-05-19T06:22:15.348Z,28544.00
2023-05-19T06:23:15.442Z,28672.00
2023-05-19T06:24:15.622Z,28672.00
2023-05-19T06:25:15.338Z,28800.00
2023-05-19T06:26:15.403Z,29312.00
2023-05-19T06:27:15.328Z,29664.00
2023-05-19T06:28:15.400Z,30400.00
2023-05-19T06:29:15.362Z,31232.00
2023-05-19T06:30:15.351Z,31360.00
2023-05-19T06:31:15.567Z,31104.00
2023-05-19T06:32:15.446Z,31200.00
2023-05-19T06:33:15.298Z,31616.00
2023-05-19T06:34:15.380Z,32256.00
2023-05-19T06:35:15.356Z,33056.00
2023-05-19T06:36:15.207Z,33536.00
2023-05-19T06:37:15.203Z,33792.00
2023-05-19T06:38:16.430Z,33888.00
2023-05-19T06:39:15.265Z,34112.00
2023-05-19T06:40:15.586Z,34112.00
2023-05-19T06:41:15.385Z,34752.00
2023-05-19T06:42:15.158Z,35136.00
2023-05-19T06:43:15.120Z,35872.00
2023-05-19T06:44:15.108Z,36800.00
2023-05-19T06:45:15.097Z,37728.00
2023-05-19T06:46:15.166Z,37792.00
2023-05-19T06:47:15.122Z,38240.00
2023-05-19T06:48:15.122Z,40096.00
2023-05-19T06:49:15.051Z,39520.00
2023-05-19T06:50:15.043Z,38912.00
2023-05-19T06:51:15.023Z,39680.00
2023-05-19T06:52:15.028Z,41152.00
2023-05-19T06:53:15.042Z,41920.00
2023-05-19T06:54:15.002Z,41088.00
2023-05-19T06:55:14.988Z,41216.00
2023-05-19T06:56:15.005Z,41568.00
2023-05-19T06:57:14.970Z,41312.00
2023-05-19T06:58:14.986Z,41504.00
2023-05-19T06:59:14.938Z,41728.00
2023-05-19T07:00:17.964Z,41792.00
2023-05-19T07:01:14.984Z,41472.00
2023-05-19T07:02:15.085Z,41888.00
2023-05-19T07:03:14.931Z,42528.00
2023-05-19T07:04:14.969Z,42944.00
2023-05-19T07:05:14.892Z,43712.00
2023-05-19T07:06:14.885Z,44352.00
2023-05-19T07:07:14.861Z,45792.00
2023-05-19T07:08:14.850Z,46336.00
2023-05-19T07:09:14.840Z,46432.00
2023-05-19T07:10:14.863Z,45792.00
2023-05-19T07:11:14.839Z,47072.00
2023-05-19T07:12:14.804Z,47552.00
2023-05-19T07:13:14.798Z,47392.00
2023-05-19T07:14:14.792Z,46656.00
2023-05-19T07:15:14.785Z,46400.00
2023-05-19T07:16:14.822Z,47200.00
2023-05-19T07:17:14.750Z,48288.00
2023-05-19T07:18:14.749Z,49856.00
2023-05-19T07:19:14.750Z,51584.00
2023-05-19T07:20:14.722Z,51136.00
2023-05-19T07:21:14.704Z,50080.00
2023-05-19T07:22:14.697Z,50400.00
2023-05-19T07:23:17.145Z,50912.00
2023-05-19T07:24:14.690Z,51328.00
2023-05-19T07:25:14.665Z,51488.00
2023-05-19T07:26:14.690Z,52064.00
2023-05-19T07:27:14.644Z,52480.00
2023-05-19T07:28:14.657Z,51520.00
2023-05-19T07:29:14.625Z,52352.00
2023-05-19T07:30:14.634Z,54816.00
2023-05-19T07:31:14.618Z,57760.00
2023-05-19T07:32:14.658Z,56576.00
2023-05-19T07:33:14.625Z,55680.00
2023-05-19T07:34:14.572Z,54944.00
2023-05-19T07:35:14.602Z,55456.00
2023-05-19T07:36:14.577Z,57184.00
2023-05-19T07:37:14.533Z,58400.00
2023-05-19T07:38:14.529Z,60000.00
2023-05-19T07:39:14.551Z,59392.00
2023-05-19T07:40:14.520Z,59872.00
2023-05-19T07:41:14.543Z,60384.00
2023-05-19T07:42:14.495Z,59456.00
2023-05-19T07:43:14.489Z,58016.00
2023-05-19T07:44:14.485Z,57760.00
2023-05-19T07:45:14.456Z,57440.00
2023-05-19T07:46:14.473Z,56544.00
2023-05-19T07:47:14.431Z,57568.00
2023-05-19T07:48:14.490Z,59808.00
2023-05-19T07:49:14.423Z,60864.00
2023-05-19T07:50:14.417Z,60576.00
2023-05-19T07:51:14.493Z,60224.00
2023-05-19T07:52:14.609Z,59552.00
2023-05-19T07:53:14.586Z,60576.00
2023-05-19T07:54:14.390Z,62368.00
2023-05-19T07:55:14.452Z,63712.00
2023-05-19T07:56:14.448Z,62016.00
2023-05-19T07:57:14.410Z,62528.00
2023-05-19T07:58:14.529Z,63648.00
2023-05-19T07:59:14.364Z,63712.00
2023-05-19T08:00:14.459Z,63840.00
2023-05-19T08:01:14.489Z,65600.00
2023-05-19T08:02:14.464Z,65792.00
2023-05-19T08:03:14.798Z,66816.00
2023-05-19T08:04:14.602Z,66464.00
2023-05-19T08:05:14.356Z,65696.00
2023-05-19T08:06:14.333Z,65536.00
2023-05-19T08:07:14.493Z,66464.00
2023-05-19T08:08:14.407Z,68416.00
2023-05-19T08:09:14.299Z,72896.00
2023-05-19T08:10:14.295Z,71616.00
2023-05-19T08:11:14.209Z,69600.00
2023-05-19T08:12:14.305Z,69408.00
2023-05-19T08:13:14.306Z,67168.00
2023-05-19T08:14:14.243Z,69024.00
2023-05-19T08:15:14.319Z,70816.00
2023-05-19T08:16:14.313Z,71296.00
2023-05-19T08:17:14.150Z,69248.00
2023-05-19T08:18:14.331Z,68608.00
2023-05-19T08:19:14.182Z,68000.00
2023-05-19T08:20:15.013Z,72256.00
2023-05-19T08:21:14.181Z,74592.00
2023-05-19T08:22:14.104Z,76576.00
2023-05-19T08:23:14.043Z,77120.00
2023-05-19T08:24:14.070Z,76320.00
2023-05-19T08:25:14.030Z,77600.00
2023-05-19T08:26:14.050Z,79648.00
2023-05-19T08:27:14.016Z,74752.00
2023-05-19T08:28:14.541Z,77600.00
2023-05-19T08:29:14.038Z,75008.00
2023-05-19T08:30:15.491Z,75808.00
2023-05-19T08:31:14.136Z,76128.00
2023-05-19T08:32:13.963Z,73952.00
2023-05-19T08:33:14.011Z,73216.00
2023-05-19T08:34:13.986Z,74304.00
2023-05-19T08:35:13.968Z,74208.00
2023-05-19T08:36:13.953Z,76448.00
2023-05-19T08:37:13.926Z,79808.00
2023-05-19T08:38:13.898Z,79680.00
2023-05-19T08:39:13.882Z,84256.00
2023-05-19T08:40:14.196Z,85056.00
2023-05-19T08:41:13.859Z,81920.00
2023-05-19T08:42:13.854Z,81984.00
2023-05-19T08:43:13.847Z,90304.00
2023-05-19T08:44:13.956Z,91744.00
2023-05-19T08:45:13.836Z,98080.00
2023-05-19T08:46:13.915Z,97088.00
2023-05-19T08:47:13.826Z,100160.00
2023-05-19T08:48:13.854Z,94784.00
2023-05-19T08:49:13.812Z,98880.00
2023-05-19T08:50:13.778Z,102208.00
2023-05-19T08:51:13.760Z,103712.00
2023-05-19T08:52:13.786Z,97280.00
2023-05-19T08:53:28.893Z,99264.00
2023-05-19T08:54:14.759Z,93888.00
2023-05-19T08:55:13.726Z,92800.00
2023-05-19T08:56:13.717Z,99776.00
2023-05-19T08:57:13.701Z,102560.00
2023-05-19T08:58:13.711Z,107520.00
2023-05-19T08:59:13.685Z,106208.00
2023-05-19T09:00:13.705Z,109056.00
2023-05-19T09:01:13.763Z,101856.00
2023-05-19T09:02:13.672Z,101216.00
2023-05-19T09:03:18.448Z,100576.00
2023-05-19T09:04:14.780Z,104896.00
2023-05-19T09:05:13.653Z,108928.00
2023-05-19T09:06:13.635Z,110752.00
2023-05-19T09:07:13.621Z,109632.00
2023-05-19T09:08:13.595Z,109472.00
2023-05-19T09:09:13.585Z,105216.00
2023-05-19T09:10:13.628Z,110432.00
2023-05-19T09:11:13.564Z,108544.00
2023-05-19T09:12:13.684Z,108512.00
2023-05-19T09:13:13.536Z,100544.00
2023-05-19T09:14:14.290Z,100480.00
2023-05-19T09:15:13.515Z,104832.00
2023-05-19T09:16:13.557Z,109920.00
2023-05-19T09:17:13.562Z,116448.00
2023-05-19T09:18:13.497Z,120320.00
2023-05-19T09:19:13.527Z,116512.00
2023-05-19T09:20:13.488Z,118176.00
2023-05-19T09:21:13.459Z,112448.00
2023-05-19T09:25:16.774Z,112288.00
2023-05-19T09:26:16.787Z,113824.00
2023-05-19T09:27:16.744Z,115392.00
2023-05-19T09:28:16.731Z,113056.00
2023-05-19T09:29:16.715Z,107328.00
2023-05-19T09:30:16.733Z,108064.00
2023-05-19T09:31:16.707Z,103392.00
2023-05-19T09:32:16.766Z,106336.00
2023-05-19T09:33:16.719Z,111136.00
2023-05-19T09:34:16.708Z,117280.00
2023-05-19T09:35:16.677Z,113856.00
2023-05-19T09:36:16.679Z,113888.00
2023-05-19T09:37:16.643Z,114816.00
2023-05-19T09:38:16.631Z,111456.00
2023-05-19T09:39:16.622Z,119936.00
2023-05-19T09:40:16.622Z,121440.00
2023-05-19T09:41:16.598Z,118336.00
2023-05-19T09:42:16.588Z,103232.00
2023-05-19T09:43:16.580Z,111648.00
2023-05-19T09:44:16.593Z,122848.00
2023-05-19T09:45:16.587Z,121312.00
2023-05-19T09:46:16.608Z,116096.00
2023-05-19T09:47:16.534Z,116960.00
2023-05-19T09:48:16.537Z,123584.00
2023-05-19T09:49:16.760Z,117184.00
2023-05-19T09:50:16.510Z,124736.00
2023-05-19T09:51:16.518Z,126176.00
2023-05-19T09:52:16.547Z,122400.00
2023-05-19T09:53:16.495Z,109728.00
2023-05-19T09:54:16.476Z,109248.00
2023-05-19T09:55:16.469Z,110016.00
2023-05-19T09:56:16.450Z,106368.00
2023-05-19T09:57:16.430Z,102816.00
2023-05-19T09:58:16.516Z,105120.00
2023-05-19T09:59:16.415Z,114080.00
2023-05-19T10:00:16.403Z,111584.00
2023-05-19T10:01:16.451Z,115328.00
2023-05-19T10:02:16.507Z,123584.00
2023-05-19T10:03:16.529Z,123200.00
2023-05-19T10:04:16.369Z,128288.00
2023-05-19T10:05:16.477Z,121248.00
2023-05-19T10:06:16.353Z,122336.00
2023-05-19T10:07:16.345Z,117024.00
2023-05-19T10:08:16.343Z,114752.00
2023-05-19T10:09:16.315Z,117568.00
2023-05-19T10:10:16.339Z,116224.00
2023-05-19T10:11:16.297Z,125120.00
2023-05-19T10:12:16.359Z,130848.00
2023-05-19T10:13:16.287Z,130304.00
2023-05-19T10:14:16.288Z,135840.00
2023-05-19T10:15:16.260Z,130976.00
2023-05-19T10:16:16.305Z,130464.00
2023-05-19T10:17:16.250Z,124704.00
2023-05-19T10:18:16.276Z,122048.00
2023-05-19T10:19:16.274Z,132064.00
2023-05-19T10:20:16.290Z,121472.00
2023-05-19T10:21:16.198Z,127072.00
2023-05-19T10:22:16.189Z,113856.00
2023-05-19T10:23:16.175Z,118944.00
2023-05-19T10:24:16.168Z,112288.00
2023-05-19T10:25:16.164Z,103744.00
2023-05-19T10:26:16.173Z,112928.00
2023-05-19T10:27:16.147Z,111904.00
2023-05-19T10:28:16.160Z,117440.00
2023-05-19T10:29:16.120Z,115168.00
2023-05-19T10:30:16.610Z,121824.00
2023-05-19T10:31:16.119Z,120672.00
2023-05-19T10:32:16.135Z,134624.00
2023-05-19T10:33:16.171Z,123136.00
2023-05-19T10:34:16.103Z,114144.00
2023-05-19T10:35:16.103Z,114208.00
2023-05-19T10:36:16.053Z,103520.00
2023-05-19T10:37:16.036Z,116288.00
2023-05-19T10:38:16.026Z,120704.00
2023-05-19T10:39:16.014Z,116992.00
2023-05-19T10:40:16.128Z,123008.00
2023-05-19T10:41:16.005Z,114528.00
2023-05-19T10:42:16.038Z,108864.00
2023-05-19T10:43:16.007Z,103840.00
2023-05-19T10:44:16.018Z,102432.00
2023-05-19T10:45:15.968Z,99840.00
2023-05-19T10:46:15.994Z,102784.00
2023-05-19T10:47:16.023Z,104160.00
2023-05-19T10:48:16.033Z,105312.00
2023-05-19T10:49:15.948Z,115744.00
2023-05-19T10:50:16.040Z,122496.00
2023-05-19T10:51:15.899Z,130304.00
2023-05-19T10:52:15.898Z,134848.00
2023-05-19T10:53:15.905Z,130624.00
2023-05-19T10:54:15.947Z,130976.00
2023-05-19T10:55:15.869Z,138880.00
2023-05-19T10:56:15.858Z,121600.00
2023-05-19T10:57:15.855Z,132576.00
2023-05-19T10:58:15.862Z,134528.00
2023-05-19T10:59:15.827Z,127712.00
2023-05-19T11:00:15.825Z,113120.00
2023-05-19T11:01:15.907Z,124128.00
2023-05-19T11:02:15.895Z,124320.00
2023-05-19T11:03:15.937Z,111968.00
2023-05-19T11:04:15.860Z,38048.00
2023-05-19T11:05:15.789Z,42912.00
2023-05-19T11:06:15.771Z,87616.00
2023-05-19T11:07:15.751Z,70400.00
2023-05-19T11:08:15.771Z,62784.00
2023-05-19T11:09:15.762Z,123232.00
2023-05-19T11:10:15.725Z,39008.00
2023-05-19T11:11:15.715Z,41088.00
2023-05-19T11:12:15.736Z,47456.00
2023-05-19T11:13:15.692Z,49760.00
2023-05-19T11:14:15.691Z,38688.00
2023-05-19T11:15:15.724Z,134528.00
2023-05-19T11:16:15.756Z,131264.00
2023-05-19T11:17:15.682Z,65312.00
2023-05-19T11:18:15.945Z,131968.00
2023-05-19T11:19:15.637Z,54080.00
2023-05-19T11:20:15.644Z,58432.00
2023-05-19T11:21:15.656Z,134048.00
2023-05-19T11:22:15.625Z,129504.00
2023-05-19T11:23:15.650Z,140000.00
2023-05-19T11:24:15.608Z,129792.00
2023-05-19T11:25:15.575Z,113920.00
2023-05-19T11:26:15.577Z,131584.00
2023-05-19T11:27:15.554Z,114016.00
2023-05-19T11:28:15.574Z,114144.00
2023-05-19T11:29:15.530Z,143968.00
2023-05-19T11:30:15.521Z,134208.00
2023-05-19T11:31:15.520Z,127840.00
2023-05-19T11:32:15.520Z,131680.00
2023-05-19T11:33:15.516Z,128928.00
2023-05-19T11:34:15.475Z,127520.00
2023-05-19T11:35:15.481Z,131520.00
2023-05-19T11:36:15.470Z,126176.00
2023-05-19T11:37:15.451Z,119424.00
2023-05-19T11:38:15.447Z,121248.00
2023-05-19T11:39:15.441Z,121856.00
2023-05-19T11:40:15.453Z,122848.00
2023-05-19T11:41:15.428Z,124352.00
2023-05-19T11:42:15.412Z,128160.00
2023-05-19T11:43:15.400Z,131328.00
2023-05-19T11:44:15.443Z,127200.00
2023-05-19T11:45:15.420Z,70752.00
2023-05-19T11:46:15.410Z,29248.00
2023-05-19T11:47:15.353Z,31968.00
2023-05-19T11:48:15.375Z,29792.00
2023-05-19T11:49:15.339Z,28224.00
2023-05-19T11:50:15.355Z,28256.00
2023-05-19T11:51:15.321Z,79168.00
2023-05-19T11:52:15.313Z,71168.00
2023-05-19T11:53:15.301Z,123488.00
2023-05-19T11:54:15.326Z,127104.00
2023-05-19T11:55:15.325Z,110784.00
2023-05-19T11:56:15.298Z,111520.00
2023-05-19T11:57:15.254Z,111200.00
2023-05-19T11:58:15.269Z,109120.00
2023-05-19T11:59:15.276Z,109120.00
2023-05-19T12:00:15.319Z,103968.00
2023-05-19T12:01:15.210Z,105504.00
2023-05-19T12:02:15.305Z,107200.00
2023-05-19T12:03:15.417Z,108896.00
2023-05-19T12:04:15.247Z,121696.00
2023-05-19T12:05:15.356Z,123360.00
2023-05-19T12:06:15.212Z,125696.00
2023-05-19T12:07:15.158Z,129632.00
2023-05-19T12:08:15.172Z,121536.00
2023-05-19T12:09:15.153Z,128608.00
2023-05-19T12:10:15.154Z,127904.00
2023-05-19T12:11:15.107Z,125120.00